sensor_id;sensor_type;location;lat;lon;timestamp;temperature;humidity
61591;DHT22;71994;52.410;-1.966;2024-02-26T00:00:35;16.10;51.20
61591;DHT22;71994;52.410;-1.966;2024-02-26T00:03:42;16.10;51.00
61591;DHT22;71994;52.410;-1.966;2024-02-26T00:06:54;16.10;51.10
61591;DHT22;71994;52.410;-1.966;2024-02-26T00:10:04;16.00;51.10
61591;DHT22;71994;52.410;-1.966;2024-02-26T00:13:11;16.00;51.10
61591;DHT22;71994;52.410;-1.966;2024-02-26T00:16:18;16.00;51.10
61591;DHT22;71994;52.410;-1.966;2024-02-26T00:19:26;15.90;51.10
61591;DHT22;71994;52.410;-1.966;2024-02-26T00:22:38;15.90;51.10
61591;DHT22;71994;52.410;-1.966;2024-02-26T00:25:48;15.90;51.00
61591;DHT22;71994;52.410;-1.966;2024-02-26T00:28:54;15.90;51.10
61591;DHT22;71994;52.410;-1.966;2024-02-26T00:32:02;15.90;51.00
61591;DHT22;71994;52.410;-1.966;2024-02-26T00:35:10;15.80;50.90
61591;DHT22;71994;52.410;-1.966;2024-02-26T00:38:20;15.80;50.90
61591;DHT22;71994;52.410;-1.966;2024-02-26T00:41:27;15.80;50.80
61591;DHT22;71994;52.410;-1.966;2024-02-26T00:44:33;15.80;51.00
61591;DHT22;71994;52.410;-1.966;2024-02-26T00:47:40;15.80;51.10
61591;DHT22;71994;52.410;-1.966;2024-02-26T00:50:48;15.70;51.00
61591;DHT22;71994;52.410;-1.966;2024-02-26T00:53:57;15.70;50.90
61591;DHT22;71994;52.410;-1.966;2024-02-26T00:57:04;15.70;51.00
61591;DHT22;71994;52.410;-1.966;2024-02-26T01:00:15;15.70;50.90
61591;DHT22;71994;52.410;-1.966;2024-02-26T01:03:24;15.60;51.20
61591;DHT22;71994;52.410;-1.966;2024-02-26T01:06:30;15.60;51.10
61591;DHT22;71994;52.410;-1.966;2024-02-26T01:09:45;15.60;51.20
61591;DHT22;71994;52.410;-1.966;2024-02-26T01:12:54;15.70;51.40
61591;DHT22;71994;52.410;-1.966;2024-02-26T01:16:04;15.70;51.50
61591;DHT22;71994;52.410;-1.966;2024-02-26T01:19:10;15.80;51.20
61591;DHT22;71994;52.410;-1.966;2024-02-26T01:22:18;16.00;50.90
61591;DHT22;71994;52.410;-1.966;2024-02-26T01:25:27;16.10;50.60
61591;DHT22;71994;52.410;-1.966;2024-02-26T01:28:34;16.20;50.40
61591;DHT22;71994;52.410;-1.966;2024-02-26T01:31:40;16.40;50.20
61591;DHT22;71994;52.410;-1.966;2024-02-26T01:34:46;16.50;50.20
61591;DHT22;71994;52.410;-1.966;2024-02-26T01:37:53;16.60;49.90
61591;DHT22;71994;52.410;-1.966;2024-02-26T01:41:02;16.60;49.80
61591;DHT22;71994;52.410;-1.966;2024-02-26T01:44:08;16.60;49.70
61591;DHT22;71994;52.410;-1.966;2024-02-26T01:47:22;16.60;49.70
61591;DHT22;71994;52.410;-1.966;2024-02-26T01:50:29;16.60;49.60
61591;DHT22;71994;52.410;-1.966;2024-02-26T01:53:37;16.60;49.70
61591;DHT22;71994;52.410;-1.966;2024-02-26T01:56:47;16.60;49.60
61591;DHT22;71994;52.410;-1.966;2024-02-26T01:59:57;16.60;49.60
61591;DHT22;71994;52.410;-1.966;2024-02-26T02:03:05;16.60;49.50
61591;DHT22;71994;52.410;-1.966;2024-02-26T02:06:16;16.60;49.60
61591;DHT22;71994;52.410;-1.966;2024-02-26T02:09:27;16.60;49.60
61591;DHT22;71994;52.410;-1.966;2024-02-26T02:12:40;16.60;49.60
61591;DHT22;71994;52.410;-1.966;2024-02-26T02:15:47;16.50;49.60
61591;DHT22;71994;52.410;-1.966;2024-02-26T02:18:56;16.50;49.60
61591;DHT22;71994;52.410;-1.966;2024-02-26T02:22:07;16.40;49.70
61591;DHT22;71994;52.410;-1.966;2024-02-26T02:25:16;16.40;49.80
61591;DHT22;71994;52.410;-1.966;2024-02-26T02:28:26;16.40;49.70
61591;DHT22;71994;52.410;-1.966;2024-02-26T02:31:33;16.40;49.90
61591;DHT22;71994;52.410;-1.966;2024-02-26T02:34:43;16.30;49.80
61591;DHT22;71994;52.410;-1.966;2024-02-26T02:37:53;16.30;49.90
61591;DHT22;71994;52.410;-1.966;2024-02-26T02:41:02;16.30;49.80
61591;DHT22;71994;52.410;-1.966;2024-02-26T02:44:08;16.20;50.00
61591;DHT22;71994;52.410;-1.966;2024-02-26T02:47:15;16.10;50.00
61591;DHT22;71994;52.410;-1.966;2024-02-26T02:50:21;16.10;50.00
61591;DHT22;71994;52.410;-1.966;2024-02-26T02:53:30;16.10;50.00
61591;DHT22;71994;52.410;-1.966;2024-02-26T02:56:39;16.10;50.10
61591;DHT22;71994;52.410;-1.966;2024-02-26T02:59:46;16.10;50.10
61591;DHT22;71994;52.410;-1.966;2024-02-26T03:02:58;16.10;50.00
61591;DHT22;71994;52.410;-1.966;2024-02-26T03:06:07;16.00;49.90
61591;DHT22;71994;52.410;-1.966;2024-02-26T03:09:21;16.00;49.90
61591;DHT22;71994;52.410;-1.966;2024-02-26T03:12:31;16.00;49.80
61591;DHT22;71994;52.410;-1.966;2024-02-26T03:15:38;15.90;49.90
61591;DHT22;71994;52.410;-1.966;2024-02-26T03:18:45;15.90;49.90
61591;DHT22;71994;52.410;-1.966;2024-02-26T03:21:53;15.90;49.90
61591;DHT22;71994;52.410;-1.966;2024-02-26T03:25:03;15.80;49.90
61591;DHT22;71994;52.410;-1.966;2024-02-26T03:28:09;15.80;50.00
61591;DHT22;71994;52.410;-1.966;2024-02-26T03:31:16;15.80;50.00
61591;DHT22;71994;52.410;-1.966;2024-02-26T03:34:24;15.80;50.00
61591;DHT22;71994;52.410;-1.966;2024-02-26T03:37:31;15.70;50.20
61591;DHT22;71994;52.410;-1.966;2024-02-26T03:40:42;15.70;50.30
61591;DHT22;71994;52.410;-1.966;2024-02-26T03:43:51;15.70;50.40
61591;DHT22;71994;52.410;-1.966;2024-02-26T03:46:58;15.70;50.50
61591;DHT22;71994;52.410;-1.966;2024-02-26T03:50:05;15.80;50.50
61591;DHT22;71994;52.410;-1.966;2024-02-26T03:53:14;15.90;50.40
61591;DHT22;71994;52.410;-1.966;2024-02-26T03:56:26;16.10;50.00
61591;DHT22;71994;52.410;-1.966;2024-02-26T03:59:33;16.10;50.10
61591;DHT22;71994;52.410;-1.966;2024-02-26T04:02:41;16.30;49.90
61591;DHT22;71994;52.410;-1.966;2024-02-26T04:05:48;16.40;49.60
61591;DHT22;71994;52.410;-1.966;2024-02-26T04:08:55;16.60;49.50
61591;DHT22;71994;52.410;-1.966;2024-02-26T04:12:07;16.60;49.30
61591;DHT22;71994;52.410;-1.966;2024-02-26T04:15:14;16.60;49.30
61591;DHT22;71994;52.410;-1.966;2024-02-26T04:18:23;16.70;49.30
61591;DHT22;71994;52.410;-1.966;2024-02-26T04:21:29;16.70;49.20
61591;DHT22;71994;52.410;-1.966;2024-02-26T04:24:36;16.70;49.20
61591;DHT22;71994;52.410;-1.966;2024-02-26T04:27:45;16.70;49.10
61591;DHT22;71994;52.410;-1.966;2024-02-26T04:30:51;16.70;49.10
61591;DHT22;71994;52.410;-1.966;2024-02-26T04:33:58;16.60;49.20
61591;DHT22;71994;52.410;-1.966;2024-02-26T04:37:04;16.60;49.20
61591;DHT22;71994;52.410;-1.966;2024-02-26T04:40:13;16.60;49.20
61591;DHT22;71994;52.410;-1.966;2024-02-26T04:43:27;16.60;49.30
61591;DHT22;71994;52.410;-1.966;2024-02-26T04:46:33;16.60;49.30
61591;DHT22;71994;52.410;-1.966;2024-02-26T04:49:42;16.50;49.40
61591;DHT22;71994;52.410;-1.966;2024-02-26T04:52:48;16.50;49.40
61591;DHT22;71994;52.410;-1.966;2024-02-26T04:55:57;16.50;49.40
61591;DHT22;71994;52.410;-1.966;2024-02-26T04:59:08;16.40;49.40
61591;DHT22;71994;52.410;-1.966;2024-02-26T05:02:15;16.40;49.50
61591;DHT22;71994;52.410;-1.966;2024-02-26T05:05:21;16.30;49.40
61591;DHT22;71994;52.410;-1.966;2024-02-26T05:08:29;16.30;49.50
61591;DHT22;71994;52.410;-1.966;2024-02-26T05:11:36;16.30;49.60
61591;DHT22;71994;52.410;-1.966;2024-02-26T05:14:49;16.30;49.50
61591;DHT22;71994;52.410;-1.966;2024-02-26T05:18:02;16.20;49.60
61591;DHT22;71994;52.410;-1.966;2024-02-26T05:21:08;16.10;49.60
61591;DHT22;71994;52.410;-1.966;2024-02-26T05:24:16;16.10;49.50
61591;DHT22;71994;52.410;-1.966;2024-02-26T05:27:25;16.10;49.50
61591;DHT22;71994;52.410;-1.966;2024-02-26T05:30:38;16.10;49.60
61591;DHT22;71994;52.410;-1.966;2024-02-26T05:33:48;16.10;49.70
61591;DHT22;71994;52.410;-1.966;2024-02-26T05:36:58;16.10;49.60
61591;DHT22;71994;52.410;-1.966;2024-02-26T05:40:18;16.10;49.60
61591;DHT22;71994;52.410;-1.966;2024-02-26T05:43:24;16.00;49.60
61591;DHT22;71994;52.410;-1.966;2024-02-26T05:46:35;16.00;49.70
61591;DHT22;71994;52.410;-1.966;2024-02-26T05:49:48;15.90;49.70
61591;DHT22;71994;52.410;-1.966;2024-02-26T05:52:56;15.80;49.70
61591;DHT22;71994;52.410;-1.966;2024-02-26T05:56:11;15.80;49.70
61591;DHT22;71994;52.410;-1.966;2024-02-26T05:59:21;15.80;49.70
61591;DHT22;71994;52.410;-1.966;2024-02-26T06:02:30;15.80;49.80
61591;DHT22;71994;52.410;-1.966;2024-02-26T06:05:40;15.70;49.80
61591;DHT22;71994;52.410;-1.966;2024-02-26T06:08:46;15.80;49.80
61591;DHT22;71994;52.410;-1.966;2024-02-26T06:11:55;15.70;49.90
61591;DHT22;71994;52.410;-1.966;2024-02-26T06:15:05;15.70;50.20
61591;DHT22;71994;52.410;-1.966;2024-02-26T06:18:15;15.60;50.40
61591;DHT22;71994;52.410;-1.966;2024-02-26T06:21:21;15.70;50.40
61591;DHT22;71994;52.410;-1.966;2024-02-26T06:24:31;15.80;50.20
61591;DHT22;71994;52.410;-1.966;2024-02-26T06:27:40;15.90;50.00
61591;DHT22;71994;52.410;-1.966;2024-02-26T06:30:48;16.00;49.80
61591;DHT22;71994;52.410;-1.966;2024-02-26T06:34:03;16.10;49.60
61591;DHT22;71994;52.410;-1.966;2024-02-26T06:37:12;16.30;49.50
61591;DHT22;71994;52.410;-1.966;2024-02-26T06:40:22;16.40;49.40
61591;DHT22;71994;52.410;-1.966;2024-02-26T06:43:30;16.50;49.30
61591;DHT22;71994;52.410;-1.966;2024-02-26T06:46:36;16.60;49.20
61591;DHT22;71994;52.410;-1.966;2024-02-26T06:49:53;16.60;49.10
61591;DHT22;71994;52.410;-1.966;2024-02-26T06:53:04;16.70;49.10
61591;DHT22;71994;52.410;-1.966;2024-02-26T06:56:22;16.60;49.00
61591;DHT22;71994;52.410;-1.966;2024-02-26T06:59:31;16.70;49.10
61591;DHT22;71994;52.410;-1.966;2024-02-26T07:02:40;16.70;49.00
61591;DHT22;71994;52.410;-1.966;2024-02-26T07:06:03;16.60;49.00
61591;DHT22;71994;52.410;-1.966;2024-02-26T07:09:13;16.60;49.00
61591;DHT22;71994;52.410;-1.966;2024-02-26T07:12:23;16.60;49.00
61591;DHT22;71994;52.410;-1.966;2024-02-26T07:15:32;16.60;49.00
61591;DHT22;71994;52.410;-1.966;2024-02-26T07:18:51;16.60;49.10
61591;DHT22;71994;52.410;-1.966;2024-02-26T07:22:15;16.60;49.10
61591;DHT22;71994;52.410;-1.966;2024-02-26T07:25:27;16.50;49.20
61591;DHT22;71994;52.410;-1.966;2024-02-26T07:28:41;16.50;49.20
61591;DHT22;71994;52.410;-1.966;2024-02-26T07:31:55;16.50;49.20
61591;DHT22;71994;52.410;-1.966;2024-02-26T07:35:22;16.50;49.00
61591;DHT22;71994;52.410;-1.966;2024-02-26T07:38:43;16.60;48.90
61591;DHT22;71994;52.410;-1.966;2024-02-26T07:42:08;16.70;48.70
61591;DHT22;71994;52.410;-1.966;2024-02-26T07:45:30;16.80;49.30
61591;DHT22;71994;52.410;-1.966;2024-02-26T07:48:50;16.90;49.10
61591;DHT22;71994;52.410;-1.966;2024-02-26T07:52:04;17.10;49.10
61591;DHT22;71994;52.410;-1.966;2024-02-26T07:55:17;17.10;49.10
61591;DHT22;71994;52.410;-1.966;2024-02-26T07:58:28;17.20;49.00
61591;DHT22;71994;52.410;-1.966;2024-02-26T08:01:39;17.30;49.00
61591;DHT22;71994;52.410;-1.966;2024-02-26T08:04:49;17.40;48.90
61591;DHT22;71994;52.410;-1.966;2024-02-26T08:08:00;17.50;48.60
61591;DHT22;71994;52.410;-1.966;2024-02-26T08:11:14;17.60;48.60
61591;DHT22;71994;52.410;-1.966;2024-02-26T08:14:24;17.60;48.40
61591;DHT22;71994;52.410;-1.966;2024-02-26T08:17:36;17.60;48.40
61591;DHT22;71994;52.410;-1.966;2024-02-26T08:20:43;17.70;48.50
61591;DHT22;71994;52.410;-1.966;2024-02-26T08:23:51;17.70;48.40
61591;DHT22;71994;52.410;-1.966;2024-02-26T08:27:03;17.70;48.30
61591;DHT22;71994;52.410;-1.966;2024-02-26T08:30:11;17.70;48.20
61591;DHT22;71994;52.410;-1.966;2024-02-26T08:33:20;17.70;48.20
61591;DHT22;71994;52.410;-1.966;2024-02-26T08:36:30;17.70;48.10
61591;DHT22;71994;52.410;-1.966;2024-02-26T08:39:37;17.70;48.10
61591;DHT22;71994;52.410;-1.966;2024-02-26T08:42:54;17.60;48.10
61591;DHT22;71994;52.410;-1.966;2024-02-26T08:46:03;17.60;48.20
61591;DHT22;71994;52.410;-1.966;2024-02-26T08:49:12;17.50;48.20
61591;DHT22;71994;52.410;-1.966;2024-02-26T08:52:19;17.50;48.30
61591;DHT22;71994;52.410;-1.966;2024-02-26T08:55:33;17.40;48.40
61591;DHT22;71994;52.410;-1.966;2024-02-26T08:58:47;17.30;48.50
61591;DHT22;71994;52.410;-1.966;2024-02-26T09:02:04;17.30;48.50
61591;DHT22;71994;52.410;-1.966;2024-02-26T09:05:19;17.20;48.60
61591;DHT22;71994;52.410;-1.966;2024-02-26T09:08:31;17.20;48.60
61591;DHT22;71994;52.410;-1.966;2024-02-26T09:11:45;17.10;48.70
61591;DHT22;71994;52.410;-1.966;2024-02-26T09:15:09;17.10;48.70
61591;DHT22;71994;52.410;-1.966;2024-02-26T09:18:17;17.00;48.80
61591;DHT22;71994;52.410;-1.966;2024-02-26T09:21:27;17.00;48.90
61591;DHT22;71994;52.410;-1.966;2024-02-26T09:24:38;17.00;48.90
61591;DHT22;71994;52.410;-1.966;2024-02-26T09:27:55;16.90;49.00
61591;DHT22;71994;52.410;-1.966;2024-02-26T09:31:22;16.80;49.00
61591;DHT22;71994;52.410;-1.966;2024-02-26T09:34:29;16.80;49.10
61591;DHT22;71994;52.410;-1.966;2024-02-26T09:37:39;16.70;49.20
61591;DHT22;71994;52.410;-1.966;2024-02-26T09:40:57;16.70;49.20
61591;DHT22;71994;52.410;-1.966;2024-02-26T09:44:05;16.60;49.30
61591;DHT22;71994;52.410;-1.966;2024-02-26T09:47:15;16.60;49.20
61591;DHT22;71994;52.410;-1.966;2024-02-26T09:50:25;16.60;49.30
61591;DHT22;71994;52.410;-1.966;2024-02-26T09:53:45;16.60;49.30
61591;DHT22;71994;52.410;-1.966;2024-02-26T09:57:00;16.50;49.30
61591;DHT22;71994;52.410;-1.966;2024-02-26T10:00:17;16.50;49.50
61591;DHT22;71994;52.410;-1.966;2024-02-26T10:03:31;16.50;49.40
61591;DHT22;71994;52.410;-1.966;2024-02-26T10:06:40;16.40;49.60
61591;DHT22;71994;52.410;-1.966;2024-02-26T10:09:50;16.40;49.50
61591;DHT22;71994;52.410;-1.966;2024-02-26T10:13:00;16.30;49.60
61591;DHT22;71994;52.410;-1.966;2024-02-26T10:16:17;16.30;49.60
61591;DHT22;71994;52.410;-1.966;2024-02-26T10:19:39;16.30;49.60
61591;DHT22;71994;52.410;-1.966;2024-02-26T10:22:55;16.30;49.50
61591;DHT22;71994;52.410;-1.966;2024-02-26T10:26:04;16.20;49.60
61591;DHT22;71994;52.410;-1.966;2024-02-26T10:29:11;16.20;49.60
61591;DHT22;71994;52.410;-1.966;2024-02-26T10:32:20;16.20;49.70
61591;DHT22;71994;52.410;-1.966;2024-02-26T10:35:32;16.10;49.70
61591;DHT22;71994;52.410;-1.966;2024-02-26T10:38:47;16.10;49.60
61591;DHT22;71994;52.410;-1.966;2024-02-26T10:42:13;16.10;49.60
61591;DHT22;71994;52.410;-1.966;2024-02-26T10:45:27;16.10;49.50
61591;DHT22;71994;52.410;-1.966;2024-02-26T10:48:35;16.10;49.50
61591;DHT22;71994;52.410;-1.966;2024-02-26T10:51:56;16.10;49.60
61591;DHT22;71994;52.410;-1.966;2024-02-26T10:55:05;16.10;49.60
61591;DHT22;71994;52.410;-1.966;2024-02-26T10:58:13;16.10;49.60
61591;DHT22;71994;52.410;-1.966;2024-02-26T11:01:24;16.10;49.60
61591;DHT22;71994;52.410;-1.966;2024-02-26T11:04:36;16.00;49.60
61591;DHT22;71994;52.410;-1.966;2024-02-26T11:07:48;16.00;49.60
61591;DHT22;71994;52.410;-1.966;2024-02-26T11:11:03;16.00;49.70
61591;DHT22;71994;52.410;-1.966;2024-02-26T11:14:18;15.90;49.70
61591;DHT22;71994;52.410;-1.966;2024-02-26T11:17:28;15.90;49.70
61591;DHT22;71994;52.410;-1.966;2024-02-26T11:20:34;15.90;49.70
61591;DHT22;71994;52.410;-1.966;2024-02-26T11:23:48;15.90;49.80
61591;DHT22;71994;52.410;-1.966;2024-02-26T11:26:58;15.90;49.80
61591;DHT22;71994;52.410;-1.966;2024-02-26T11:30:09;15.80;49.70
61591;DHT22;71994;52.410;-1.966;2024-02-26T11:33:16;15.80;49.70
61591;DHT22;71994;52.410;-1.966;2024-02-26T11:36:26;15.90;49.70
61591;DHT22;71994;52.410;-1.966;2024-02-26T11:39:39;15.80;49.80
61591;DHT22;71994;52.410;-1.966;2024-02-26T11:42:47;15.80;49.70
61591;DHT22;71994;52.410;-1.966;2024-02-26T11:46:02;15.80;49.70
61591;DHT22;71994;52.410;-1.966;2024-02-26T11:49:32;15.80;49.70
61591;DHT22;71994;52.410;-1.966;2024-02-26T11:52:42;15.80;49.80
61591;DHT22;71994;52.410;-1.966;2024-02-26T11:56:33;15.80;49.70
61591;DHT22;71994;52.410;-1.966;2024-02-26T11:59:44;15.70;49.80
61591;DHT22;71994;52.410;-1.966;2024-02-26T12:02:52;15.70;50.00
61591;DHT22;71994;52.410;-1.966;2024-02-26T12:06:07;15.70;50.10
61591;DHT22;71994;52.410;-1.966;2024-02-26T12:09:35;15.70;50.20
61591;DHT22;71994;52.410;-1.966;2024-02-26T12:12:48;15.80;50.10
61591;DHT22;71994;52.410;-1.966;2024-02-26T12:15:56;15.90;49.80
61591;DHT22;71994;52.410;-1.966;2024-02-26T12:19:14;16.10;49.70
61591;DHT22;71994;52.410;-1.966;2024-02-26T12:22:27;16.20;49.40
61591;DHT22;71994;52.410;-1.966;2024-02-26T12:25:38;16.40;49.20
61591;DHT22;71994;52.410;-1.966;2024-02-26T12:28:50;16.60;48.90
61591;DHT22;71994;52.410;-1.966;2024-02-26T12:32:00;16.70;48.60
61591;DHT22;71994;52.410;-1.966;2024-02-26T12:35:12;16.80;48.50
61591;DHT22;71994;52.410;-1.966;2024-02-26T12:38:23;16.90;48.40
61591;DHT22;71994;52.410;-1.966;2024-02-26T12:45:14;16.90;48.40
61591;DHT22;71994;52.410;-1.966;2024-02-26T12:48:31;16.90;48.50
61591;DHT22;71994;52.410;-1.966;2024-02-26T12:51:41;16.90;48.50
61591;DHT22;71994;52.410;-1.966;2024-02-26T12:54:50;16.90;48.50
61591;DHT22;71994;52.410;-1.966;2024-02-26T12:58:04;16.80;48.60
61591;DHT22;71994;52.410;-1.966;2024-02-26T13:01:29;16.80;48.70
61591;DHT22;71994;52.410;-1.966;2024-02-26T13:04:39;16.80;48.60
61591;DHT22;71994;52.410;-1.966;2024-02-26T13:07:53;16.70;48.60
61591;DHT22;71994;52.410;-1.966;2024-02-26T13:11:10;16.70;48.60
61591;DHT22;71994;52.410;-1.966;2024-02-26T13:14:26;16.70;48.60
61591;DHT22;71994;52.410;-1.966;2024-02-26T13:17:43;16.60;48.80
61591;DHT22;71994;52.410;-1.966;2024-02-26T13:20:54;16.60;48.80
61591;DHT22;71994;52.410;-1.966;2024-02-26T13:24:21;16.60;48.80
61591;DHT22;71994;52.410;-1.966;2024-02-26T13:27:32;16.60;48.80
61591;DHT22;71994;52.410;-1.966;2024-02-26T13:30:49;16.60;48.90
61591;DHT22;71994;52.410;-1.966;2024-02-26T13:34:02;16.50;49.00
61591;DHT22;71994;52.410;-1.966;2024-02-26T13:37:13;16.50;48.90
61591;DHT22;71994;52.410;-1.966;2024-02-26T13:40:22;16.50;48.90
61591;DHT22;71994;52.410;-1.966;2024-02-26T13:43:38;16.50;48.90
61591;DHT22;71994;52.410;-1.966;2024-02-26T13:46:49;16.50;49.00
61591;DHT22;71994;52.410;-1.966;2024-02-26T13:50:02;16.40;49.10
61591;DHT22;71994;52.410;-1.966;2024-02-26T13:53:12;16.40;49.10
61591;DHT22;71994;52.410;-1.966;2024-02-26T13:56:23;16.30;49.00
61591;DHT22;71994;52.410;-1.966;2024-02-26T13:59:29;16.30;49.10
61591;DHT22;71994;52.410;-1.966;2024-02-26T14:02:38;16.30;49.10
61591;DHT22;71994;52.410;-1.966;2024-02-26T14:05:54;16.30;49.10
61591;DHT22;71994;52.410;-1.966;2024-02-26T14:09:01;16.20;49.20
61591;DHT22;71994;52.410;-1.966;2024-02-26T14:15:37;16.20;49.20
61591;DHT22;71994;52.410;-1.966;2024-02-26T14:18:53;16.10;49.30
61591;DHT22;71994;52.410;-1.966;2024-02-26T14:22:14;16.10;49.30
61591;DHT22;71994;52.410;-1.966;2024-02-26T14:25:29;16.10;49.40
61591;DHT22;71994;52.410;-1.966;2024-02-26T14:28:41;16.10;49.30
61591;DHT22;71994;52.410;-1.966;2024-02-26T14:31:49;16.10;49.40
61591;DHT22;71994;52.410;-1.966;2024-02-26T14:34:59;16.10;49.30
61591;DHT22;71994;52.410;-1.966;2024-02-26T14:38:09;16.10;49.40
61591;DHT22;71994;52.410;-1.966;2024-02-26T14:41:19;16.00;49.40
61591;DHT22;71994;52.410;-1.966;2024-02-26T14:44:30;16.00;49.50
61591;DHT22;71994;52.410;-1.966;2024-02-26T14:47:53;16.00;49.40
61591;DHT22;71994;52.410;-1.966;2024-02-26T14:51:06;15.90;49.40
61591;DHT22;71994;52.410;-1.966;2024-02-26T14:54:23;15.90;49.50
61591;DHT22;71994;52.410;-1.966;2024-02-26T14:57:47;15.90;49.50
61591;DHT22;71994;52.410;-1.966;2024-02-26T15:01:13;15.90;49.40
61591;DHT22;71994;52.410;-1.966;2024-02-26T15:04:24;15.90;49.50
61591;DHT22;71994;52.410;-1.966;2024-02-26T15:07:30;15.80;49.50
61591;DHT22;71994;52.410;-1.966;2024-02-26T15:11:03;15.80;49.50
61591;DHT22;71994;52.410;-1.966;2024-02-26T15:14:13;15.80;49.60
61591;DHT22;71994;52.410;-1.966;2024-02-26T15:17:23;15.80;49.60
61591;DHT22;71994;52.410;-1.966;2024-02-26T15:20:38;15.80;49.50
61591;DHT22;71994;52.410;-1.966;2024-02-26T15:23:51;15.80;49.60
61591;DHT22;71994;52.410;-1.966;2024-02-26T15:27:04;15.80;49.60
61591;DHT22;71994;52.410;-1.966;2024-02-26T15:30:19;15.70;49.60
61591;DHT22;71994;52.410;-1.966;2024-02-26T15:33:30;15.70;49.70
61591;DHT22;71994;52.410;-1.966;2024-02-26T15:36:46;15.70;49.90
61591;DHT22;71994;52.410;-1.966;2024-02-26T15:39:57;15.70;49.90
61591;DHT22;71994;52.410;-1.966;2024-02-26T15:46:47;15.80;49.80
61591;DHT22;71994;52.410;-1.966;2024-02-26T15:50:16;15.90;49.70
61591;DHT22;71994;52.410;-1.966;2024-02-26T15:53:35;16.10;49.50
61591;DHT22;71994;52.410;-1.966;2024-02-26T15:57:05;16.20;49.20
61591;DHT22;71994;52.410;-1.966;2024-02-26T16:00:16;16.30;49.00
61591;DHT22;71994;52.410;-1.966;2024-02-26T16:03:39;16.50;48.80
61591;DHT22;71994;52.410;-1.966;2024-02-26T16:06:57;16.60;48.60
61591;DHT22;71994;52.410;-1.966;2024-02-26T16:10:16;16.60;48.50
61591;DHT22;71994;52.410;-1.966;2024-02-26T16:13:26;16.60;48.60
61591;DHT22;71994;52.410;-1.966;2024-02-26T16:16:47;16.60;48.50
61591;DHT22;71994;52.410;-1.966;2024-02-26T16:20:06;16.70;48.50
61591;DHT22;71994;52.410;-1.966;2024-02-26T16:23:24;16.60;48.50
61591;DHT22;71994;52.410;-1.966;2024-02-26T16:26:31;16.60;48.40
61591;DHT22;71994;52.410;-1.966;2024-02-26T16:29:39;16.60;48.50
61591;DHT22;71994;52.410;-1.966;2024-02-26T16:33:08;16.60;48.50
61591;DHT22;71994;52.410;-1.966;2024-02-26T16:36:22;16.60;48.50
61591;DHT22;71994;52.410;-1.966;2024-02-26T16:39:32;16.50;48.70
61591;DHT22;71994;52.410;-1.966;2024-02-26T16:42:54;16.50;48.80
61591;DHT22;71994;52.410;-1.966;2024-02-26T16:46:01;16.40;48.80
61591;DHT22;71994;52.410;-1.966;2024-02-26T16:49:16;16.40;48.90
61591;DHT22;71994;52.410;-1.966;2024-02-26T16:52:25;16.40;49.10
61591;DHT22;71994;52.410;-1.966;2024-02-26T16:55:44;16.30;49.10
61591;DHT22;71994;52.410;-1.966;2024-02-26T16:58:55;16.30;49.10
61591;DHT22;71994;52.410;-1.966;2024-02-26T17:02:05;16.30;49.20
61591;DHT22;71994;52.410;-1.966;2024-02-26T17:05:20;16.30;49.20
61591;DHT22;71994;52.410;-1.966;2024-02-26T17:08:32;16.20;49.30
61591;DHT22;71994;52.410;-1.966;2024-02-26T17:11:44;16.20;49.30
61591;DHT22;71994;52.410;-1.966;2024-02-26T17:14:54;16.20;49.20
61591;DHT22;71994;52.410;-1.966;2024-02-26T17:18:04;16.10;49.30
61591;DHT22;71994;52.410;-1.966;2024-02-26T17:21:23;16.20;49.40
61591;DHT22;71994;52.410;-1.966;2024-02-26T17:24:30;16.20;49.30
61591;DHT22;71994;52.410;-1.966;2024-02-26T17:27:39;16.20;49.30
61591;DHT22;71994;52.410;-1.966;2024-02-26T17:30:54;16.20;49.30
61591;DHT22;71994;52.410;-1.966;2024-02-26T17:34:18;16.10;49.30
61591;DHT22;71994;52.410;-1.966;2024-02-26T17:37:50;16.10;49.40
61591;DHT22;71994;52.410;-1.966;2024-02-26T17:41:02;16.10;49.40
61591;DHT22;71994;52.410;-1.966;2024-02-26T17:44:13;16.10;49.50
61591;DHT22;71994;52.410;-1.966;2024-02-26T17:47:23;16.10;49.80
61591;DHT22;71994;52.410;-1.966;2024-02-26T17:50:51;16.20;49.90
61591;DHT22;71994;52.410;-1.966;2024-02-26T17:54:14;16.30;49.80
61591;DHT22;71994;52.410;-1.966;2024-02-26T17:57:38;16.50;49.50
61591;DHT22;71994;52.410;-1.966;2024-02-26T18:00:59;16.60;49.50
61591;DHT22;71994;52.410;-1.966;2024-02-26T18:04:13;16.70;49.40
61591;DHT22;71994;52.410;-1.966;2024-02-26T18:07:25;16.90;49.30
61591;DHT22;71994;52.410;-1.966;2024-02-26T18:10:46;17.10;48.90
61591;DHT22;71994;52.410;-1.966;2024-02-26T18:13:55;17.10;48.90
61591;DHT22;71994;52.410;-1.966;2024-02-26T18:17:07;17.30;48.70
61591;DHT22;71994;52.410;-1.966;2024-02-26T18:20:25;17.40;48.70
61591;DHT22;71994;52.410;-1.966;2024-02-26T18:23:37;17.50;48.50
61591;DHT22;71994;52.410;-1.966;2024-02-26T18:27:09;17.50;48.50
61591;DHT22;71994;52.410;-1.966;2024-02-26T18:30:25;17.60;48.20
61591;DHT22;71994;52.410;-1.966;2024-02-26T18:33:41;17.60;48.10
61591;DHT22;71994;52.410;-1.966;2024-02-26T18:36:55;17.80;48.30
61591;DHT22;71994;52.410;-1.966;2024-02-26T18:40:08;17.80;48.20
61591;DHT22;71994;52.410;-1.966;2024-02-26T18:43:26;17.90;48.10
61591;DHT22;71994;52.410;-1.966;2024-02-26T18:51:23;17.90;47.80
61591;DHT22;71994;52.410;-1.966;2024-02-26T18:58:44;18.00;47.90
61591;DHT22;71994;52.410;-1.966;2024-02-26T19:01:53;17.90;47.80
61591;DHT22;71994;52.410;-1.966;2024-02-26T19:05:14;17.90;47.90
61591;DHT22;71994;52.410;-1.966;2024-02-26T19:08:32;17.80;47.90
61591;DHT22;71994;52.410;-1.966;2024-02-26T19:11:45;17.80;47.80
61591;DHT22;71994;52.410;-1.966;2024-02-26T19:15:05;17.70;47.90
61591;DHT22;71994;52.410;-1.966;2024-02-26T19:18:23;17.70;48.10
61591;DHT22;71994;52.410;-1.966;2024-02-26T19:21:39;17.60;48.20
61591;DHT22;71994;52.410;-1.966;2024-02-26T19:24:58;17.50;48.30
61591;DHT22;71994;52.410;-1.966;2024-02-26T19:28:11;17.50;48.40
61591;DHT22;71994;52.410;-1.966;2024-02-26T19:31:25;17.40;48.50
61591;DHT22;71994;52.410;-1.966;2024-02-26T19:35:39;17.40;48.40
61591;DHT22;71994;52.410;-1.966;2024-02-26T19:38:10;17.30;48.60
61591;DHT22;71994;52.410;-1.966;2024-02-26T19:41:26;17.30;48.60
61591;DHT22;71994;52.410;-1.966;2024-02-26T19:44:36;17.20;48.70
61591;DHT22;71994;52.410;-1.966;2024-02-26T19:47:53;17.20;48.80
61591;DHT22;71994;52.410;-1.966;2024-02-26T19:51:01;17.10;48.60
61591;DHT22;71994;52.410;-1.966;2024-02-26T19:54:16;17.20;48.50
61591;DHT22;71994;52.410;-1.966;2024-02-26T19:57:23;17.30;48.40
61591;DHT22;71994;52.410;-1.966;2024-02-26T20:00:41;17.30;48.50
61591;DHT22;71994;52.410;-1.966;2024-02-26T20:04:02;17.50;48.40
61591;DHT22;71994;52.410;-1.966;2024-02-26T20:07:14;17.60;48.20
61591;DHT22;71994;52.410;-1.966;2024-02-26T20:10:29;17.60;48.10
61591;DHT22;71994;52.410;-1.966;2024-02-26T20:13:45;17.70;48.10